Terminal Aerodrome Forecast
Issued by NWS Charleston, SC

Home | Current Version | Previous Version | Text Only | Print | Product List | Glossary On
Versions: 1 2 3 4 5 6 7 8 9 10 11 12 13 14 15 16 17 18
000
FTUS42 KCHS 222300
TAFCHS
TAF
KCHS 222322Z 2300/2324 02006KT 6SM -RA BR SCT015 BKN040
      TEMPO 2300/2303 4SM -RA BR SCT015 BKN025
     FM230500 04006KT P6SM SCT008 BKN020
     FM231400 06010KT P6SM SCT020 BKN040=

USA.gov is the U.S. government's official web portal to all federal, state and local government web resources and services.